Oberon — SKJF — position and weather

sailwx.info

Track history (hours):
 
Tides and Currents Weather Stations Pressure Air Temp Water Temp Dewpoint Dewpoint Depression Visibility Wind Speed Wind Dir Waves Ship Positions

Oberon

Last reported at 2016-Dec-03 13:33 UTC. Time now 2016-Dec-06 08:16 UTC.
Position N 39°24' W 073°54'.

Length 232 m; draft 9 m.

Type: Cargo ship. MMSI: 266283000.

Date/timePositionNaut miles runAvg speedWind from/ knotsBaromVisibWave heightAir tempDewpointWater temp
2016-Dec-03 13:33N 39°24' W 073°54'1918.6
2016-Dec-03 12:33N 39°42' W 073°50'3416.9
2016-Dec-03 10:32N 40°16' W 073°49'1010.0
2016-Dec-03 09:33N 40°26' W 073°49'1010.2
2016-Dec-03 08:33N 40°31' W 074°00'10 9.9
2016-Dec-03 07:33N 40°39' W 074°09'3 3.1
2016-Dec-03 06:31N 40°42' W 074°09'0 0.0
2016-Dec-03 05:31N 40°42' W 074°09'0 0.0
2016-Dec-03 04:33N 40°42' W 074°09'0 0.0
2016-Dec-03 03:33N 40°42' W 074°09'0 0.0
2016-Dec-03 02:33N 40°42' W 074°09'0 0.0
2016-Dec-03 01:33N 40°42' W 074°09'0 0.0
2016-Dec-03 00:33N 40°42' W 074°09'0 0.0
2016-Dec-02 23:33N 40°42' W 074°09'0 0.1
2016-Dec-02 22:33N 40°42' W 074°08'5 4.6
2016-Dec-02 21:33N 40°39' W 074°04'1 1.1
2016-Dec-02 20:33N 40°40' W 074°04'0 0.0
2016-Dec-02 19:33N 40°40' W 074°04'0 0.0
2016-Dec-02 18:33N 40°40' W 074°04'0 0.0
2016-Dec-02 17:33N 40°40' W 074°04'0 0.0
2016-Dec-02 16:33N 40°40' W 074°04'0 0.0
2016-Dec-02 15:33N 40°40' W 074°04'0 0.0
2016-Dec-02 14:33N 40°40' W 074°04'0 0.0
2016-Dec-02 13:33N 40°40' W 074°04'0 0.0
2016-Dec-02 12:33N 40°40' W 074°04'1 1.4
2016-Dec-02 11:33N 40°39' W 074°03'1211.7
2016-Dec-02 10:33N 40°29' W 073°54'7 7.2
2016-Dec-02 09:33N 40°27' W 073°45'  
Track history (hours):
 
Tides and Currents Weather Stations Pressure Air Temp Water Temp Dewpoint Dewpoint Depression Visibility Wind Speed Wind Dir Waves Ship Positions

Oberon

Last reported at 2016-Dec-03 13:33 UTC. Time now 2016-Dec-06 08:16 UTC.
Position N 39°24' W 073°54'.

Length 232 m; draft 9 m.

Type: Cargo ship. MMSI: 266283000.

Date/timePositionNaut miles runAvg speedWind from/ knotsBaromVisibWave heightAir tempDewpointWater temp
2016-Dec-03 13:33N 39°24' W 073°54'1918.6
2016-Dec-03 12:33N 39°42' W 073°50'3416.9
2016-Dec-03 10:32N 40°16' W 073°49'1010.0
2016-Dec-03 09:33N 40°26' W 073°49'1010.2
2016-Dec-03 08:33N 40°31' W 074°00'10 9.9
2016-Dec-03 07:33N 40°39' W 074°09'3 3.1
2016-Dec-03 06:31N 40°42' W 074°09'0 0.0
2016-Dec-03 05:31N 40°42' W 074°09'0 0.0
2016-Dec-03 04:33N 40°42' W 074°09'0 0.0
2016-Dec-03 03:33N 40°42' W 074°09'0 0.0
2016-Dec-03 02:33N 40°42' W 074°09'0 0.0
2016-Dec-03 01:33N 40°42' W 074°09'0 0.0
2016-Dec-03 00:33N 40°42' W 074°09'0 0.0
2016-Dec-02 23:33N 40°42' W 074°09'0 0.1
2016-Dec-02 22:33N 40°42' W 074°08'5 4.6
2016-Dec-02 21:33N 40°39' W 074°04'1 1.1
2016-Dec-02 20:33N 40°40' W 074°04'0 0.0
2016-Dec-02 19:33N 40°40' W 074°04'0 0.0
2016-Dec-02 18:33N 40°40' W 074°04'0 0.0
2016-Dec-02 17:33N 40°40' W 074°04'0 0.0
2016-Dec-02 16:33N 40°40' W 074°04'0 0.0
2016-Dec-02 15:33N 40°40' W 074°04'0 0.0
2016-Dec-02 14:33N 40°40' W 074°04'0 0.0
2016-Dec-02 13:33N 40°40' W 074°04'0 0.0
2016-Dec-02 12:33N 40°40' W 074°04'1 1.4
2016-Dec-02 11:33N 40°39' W 074°03'1211.7
2016-Dec-02 10:33N 40°29' W 073°54'7 7.2
2016-Dec-02 09:33N 40°27' W 073°45'  

Dump ship's entire track history